YSSY

Sydney Airport

Airport
ICAO code
YSSY
IATA Code
SYD
Summary
ICAO Region
APAC
ICAO Territory
Location

Mascot, New South Wales

Serving
Sydney
Elevation
21 ft
Coordinates
33° 56' 23" S , 151° 10' 32" E
KCC
Airport BS
Bird Strike
Metar
YSSY 250400Z 28002KT 9999 FEW030 SCT045 BKN220 19/11 Q1025 RF00.0/000.0

SKYbrary Partners:

Safety knowledge contributed by: